Time;durP1;ratioP1;P1;durP2;ratioP2;P2;SDS_P1;SDS_P2;PMS_P1;PMS_P2;Temp;Humidity;BMP_temperature;BMP_pressure;BME280_temperature;BME280_humidity;BME280_pressure;Samples;Min_cycle;Max_cycle;Signal;HPM_P1;HPM_P2
2021/04/16 00:01:58;;;;;;;0.40;0.35;;;20.00;42.70;;;;;;7673588;23;20008;-67
2021/04/16 00:04:58;;;;;;;0.47;0.30;;;20.00;42.60;;;;;;7673190;23;20337;-67
2021/04/16 00:07:59;;;;;;;0.40;0.40;;;20.00;42.60;;;;;;7672900;23;20020;-66
2021/04/16 00:11:03;;;;;;;0.75;0.50;;;20.00;42.70;;;;;;7673075;23;20001;-67
2021/04/16 00:14:04;;;;;;;0.25;0.25;;;20.00;42.60;;;;;;7672807;23;20012;-67
2021/04/16 00:17:04;;;;;;;0.75;0.47;;;20.00;42.80;;;;;;7673097;23;20005;-67
2021/04/16 00:20:07;;;;;;;0.30;0.30;;;20.00;42.60;;;;;;7673189;23;20013;-67
2021/04/16 00:23:08;;;;;;;0.35;0.35;;;20.00;42.80;;;;;;7672562;23;20381;-67
2021/04/16 00:26:11;;;;;;;0.40;0.30;;;20.00;42.60;;;;;;7672745;23;20016;-67
2021/04/16 00:29:12;;;;;;;0.85;0.45;;;20.00;42.70;;;;;;7670179;23;20029;-67
2021/04/16 00:32:13;;;;;;;0.43;0.40;;;20.00;42.70;;;;;;7672815;23;20001;-67
2021/04/16 00:35:13;;;;;;;0.30;0.30;;;20.00;42.60;;;;;;7672745;23;20005;-66
2021/04/16 00:38:16;;;;;;;0.38;0.30;;;20.00;42.80;;;;;;7672920;23;20084;-66
2021/04/16 00:41:20;;;;;;;0.40;0.30;;;20.00;42.90;;;;;;7672842;23;20012;-67
2021/04/16 00:44:21;;;;;;;0.50;0.40;;;20.00;42.80;;;;;;7673081;23;20008;-67
2021/04/16 00:47:23;;;;;;;0.50;0.40;;;20.00;42.90;;;;;;7672683;23;20078;-67
2021/04/16 00:50:46;;;;;;;0.70;0.40;;;20.00;42.90;;;;;;7672840;23;20009;-67
2021/04/16 00:53:48;;;;;;;0.50;0.40;;;20.00;42.80;;;;;;7671693;23;20437;-67
2021/04/16 00:56:50;;;;;;;0.50;0.40;;;20.00;42.90;;;;;;7672862;23;20009;-67
2021/04/16 00:59:58;;;;;;;0.40;0.40;;;20.00;42.80;;;;;;7671935;23;20075;-67
2021/04/16 01:03:00;;;;;;;0.30;0.30;;;20.00;43.00;;;;;;7672440;23;20460;-67
2021/04/16 01:06:05;;;;;;;1.08;0.50;;;20.00;42.90;;;;;;7672796;23;20012;-67
2021/04/16 01:09:07;;;;;;;0.40;0.38;;;20.00;42.90;;;;;;7672506;23;20124;-67
2021/04/16 01:12:10;;;;;;;0.30;0.30;;;20.00;43.00;;;;;;7672648;23;20009;-67
2021/04/16 01:15:26;;;;;;;0.75;0.40;;;20.00;42.90;;;;;;7672207;23;20005;-67
2021/04/16 01:18:39;;;;;;;0.70;0.40;;;20.00;42.90;;;;;;7672000;23;20013;-67
2021/04/16 01:21:51;;;;;;;0.20;0.20;;;20.00;42.80;;;;;;7672775;23;20009;-67
2021/04/16 01:24:56;;;;;;;0.47;0.30;;;20.00;42.90;;;;;;7672115;23;20005;-67
2021/04/16 01:27:56;;;;;;;;;;;20.00;43.00;;;;;;7672909;23;20444;-67
2021/04/16 01:31:09;;;;;;;0.65;0.30;;;20.00;42.80;;;;;;7672235;23;19939;-67
2021/04/16 01:34:09;;;;;;;0.63;0.30;;;20.00;42.90;;;;;;7672264;23;20009;-67
2021/04/16 01:37:10;;;;;;;0.52;0.50;;;20.00;43.10;;;;;;7672847;23;20008;-66
2021/04/16 01:40:12;;;;;;;0.82;0.40;;;20.00;43.10;;;;;;7672248;23;20060;-67
2021/04/16 01:43:35;;;;;;;0.68;0.40;;;20.00;42.90;;;;;;7672043;23;20008;-66
2021/04/16 01:46:52;;;;;;;0.57;0.35;;;20.00;43.10;;;;;;7672148;23;20085;-67
2021/04/16 01:49:52;;;;;;;0.57;0.40;;;20.00;43.00;;;;;;7671973;23;20001;-67
2021/04/16 01:52:53;;;;;;;0.63;0.52;;;20.00;43.10;;;;;;7674448;23;20064;-67
2021/04/16 01:55:54;;;;;;;0.60;0.38;;;20.00;43.10;;;;;;7674967;23;20001;-67
2021/04/16 01:58:54;;;;;;;1.00;0.32;;;20.00;43.10;;;;;;7674350;23;20349;-66
2021/04/16 02:01:55;;;;;;;0.30;0.30;;;20.00;43.10;;;;;;7674515;23;20001;-67
2021/04/16 02:04:57;;;;;;;0.30;0.30;;;20.00;43.10;;;;;;7674801;23;20015;-67
2021/04/16 02:07:57;;;;;;;0.55;0.50;;;20.00;43.00;;;;;;7674453;23;20076;-67
2021/04/16 02:10:58;;;;;;;0.20;0.20;;;20.00;43.10;;;;;;7674035;23;20286;-67
2021/04/16 02:13:58;;;;;;;1.00;0.45;;;20.00;43.00;;;;;;7674434;23;20381;-66
2021/04/16 02:17:03;;;;;;;0.40;0.40;;;20.00;43.10;;;;;;7674287;23;20013;-66
2021/04/16 02:20:09;;;;;;;0.30;0.30;;;20.00;43.10;;;;;;7673985;23;20017;-66
2021/04/16 02:23:10;;;;;;;0.70;0.50;;;20.00;43.10;;;;;;7673949;23;20029;-67
2021/04/16 02:26:11;;;;;;;0.40;0.40;;;20.00;43.10;;;;;;7674754;23;20013;-67
2021/04/16 02:29:15;;;;;;;0.73;0.57;;;20.00;43.20;;;;;;7673960;23;20027;-67
2021/04/16 02:32:16;;;;;;;0.68;0.50;;;20.00;43.20;;;;;;7672640;23;20012;-67
2021/04/16 02:35:17;;;;;;;0.68;0.38;;;20.00;43.10;;;;;;7674004;23;20005;-66
2021/04/16 02:38:18;;;;;;;0.85;0.38;;;20.00;43.20;;;;;;7674521;23;20017;-67
2021/04/16 02:41:19;;;;;;;0.20;0.20;;;19.90;43.20;;;;;;7674254;23;20375;-67
2021/04/16 02:44:21;;;;;;;0.28;0.28;;;19.90;43.20;;;;;;7673933;23;20013;-67
2021/04/16 02:47:21;;;;;;;0.57;0.38;;;20.00;43.10;;;;;;7673936;23;20013;-67
2021/04/16 02:50:26;;;;;;;0.40;0.30;;;20.00;43.10;;;;;;7673837;23;20067;-67
2021/04/16 02:53:27;;;;;;;;;;;19.90;43.10;;;;;;7674589;23;20005;-67
2021/04/16 02:56:28;;;;;;;1.15;0.40;;;20.00;43.20;;;;;;7673923;23;19923;-67
2021/04/16 02:59:30;;;;;;;0.30;0.30;;;19.90;43.10;;;;;;7673573;23;20429;-66
2021/04/16 03:02:31;;;;;;;0.40;0.38;;;19.90;43.10;;;;;;7673054;23;20055;-67
2021/04/16 03:05:31;;;;;;;0.40;0.40;;;20.00;43.90;;;;;;7674153;23;20032;-66
2021/04/16 03:08:32;;;;;;;0.38;0.30;;;20.00;43.10;;;;;;7674013;23;20320;-67
2021/04/16 03:11:33;;;;;;;0.60;0.50;;;19.90;43.10;;;;;;7697172;23;20009;-67
2021/04/16 03:14:34;;;;;;;0.38;0.30;;;19.90;43.00;;;;;;7673876;23;20008;-66
2021/04/16 03:17:35;;;;;;;0.30;0.30;;;19.90;43.10;;;;;;7673330;23;20432;-67
2021/04/16 03:20:36;;;;;;;0.47;0.40;;;19.90;43.10;;;;;;7673355;23;20068;-65
2021/04/16 03:23:36;;;;;;;0.43;0.30;;;19.90;43.10;;;;;;7673394;23;20005;-67
2021/04/16 03:26:37;;;;;;;0.50;0.40;;;19.90;43.10;;;;;;7673431;23;20001;-67
2021/04/16 03:29:38;;;;;;;0.30;0.30;;;19.90;43.20;;;;;;7673346;23;20421;-67
2021/04/16 03:32:39;;;;;;;0.50;0.40;;;19.90;43.10;;;;;;7673286;23;20012;-67
2021/04/16 03:35:39;;;;;;;0.57;0.40;;;19.90;43.10;;;;;;7673335;23;20309;-66
2021/04/16 03:38:40;;;;;;;0.65;0.30;;;19.90;43.10;;;;;;7673596;23;20393;-67
2021/04/16 03:41:41;;;;;;;1.10;0.43;;;19.90;43.10;;;;;;7673350;23;20001;-67
2021/04/16 03:44:41;;;;;;;0.50;0.30;;;19.90;43.20;;;;;;7673178;23;20075;-67
2021/04/16 03:47:43;;;;;;;0.40;0.40;;;19.90;43.10;;;;;;7672713;23;20005;-67
2021/04/16 03:50:44;;;;;;;0.43;0.30;;;19.90;43.10;;;;;;7673048;23;20328;-67
2021/04/16 03:53:45;;;;;;;0.60;0.38;;;19.90;43.20;;;;;;7673338;23;20029;-66
2021/04/16 03:56:45;;;;;;;0.40;0.30;;;19.90;43.20;;;;;;7673337;23;20005;-67
2021/04/16 03:59:47;;;;;;;0.38;0.30;;;19.90;43.20;;;;;;7673636;23;20373;-67
2021/04/16 04:02:47;;;;;;;0.57;0.32;;;19.90;43.20;;;;;;7672865;23;20012;-67
2021/04/16 04:05:48;;;;;;;0.30;0.30;;;19.90;43.20;;;;;;7673437;23;20343;-66
2021/04/16 04:08:48;;;;;;;0.80;0.50;;;19.90;43.30;;;;;;7673604;23;20005;-67
2021/04/16 04:11:49;;;;;;;0.65;0.45;;;19.90;43.20;;;;;;7672943;23;20028;-66
2021/04/16 04:14:49;;;;;;;0.85;0.32;;;19.90;43.10;;;;;;7672903;23;20008;-66
2021/04/16 04:17:50;;;;;;;0.52;0.32;;;19.90;43.00;;;;;;7672479;23;20012;-67
2021/04/16 04:20:50;;;;;;;0.47;0.45;;;19.90;42.90;;;;;;7672831;23;20435;-66
2021/04/16 04:23:51;;;;;;;0.47;0.25;;;20.00;43.10;;;;;;7672917;23;20005;-67
2021/04/16 04:26:52;;;;;;;1.02;0.30;;;20.00;42.90;;;;;;7672665;23;20029;-67
2021/04/16 04:29:52;;;;;;;0.60;0.43;;;20.00;43.10;;;;;;7672933;23;20016;-67
2021/04/16 04:32:54;;;;;;;1.35;0.30;;;20.00;42.90;;;;;;7672421;23;20009;-67
2021/04/16 04:35:54;;;;;;;0.68;0.50;;;20.00;43.00;;;;;;7673257;23;20116;-65
2021/04/16 04:38:55;;;;;;;0.85;0.52;;;20.00;42.90;;;;;;7672460;23;20029;-66
2021/04/16 04:41:57;;;;;;;0.90;0.32;;;20.00;42.90;;;;;;7672725;23;20011;-65
2021/04/16 04:44:57;;;;;;;0.60;0.40;;;20.00;42.90;;;;;;7662944;23;20009;-67
2021/04/16 04:47:58;;;;;;;0.32;0.30;;;20.00;43.00;;;;;;7670969;23;20507;-67
2021/04/16 04:50:59;;;;;;;1.23;0.47;;;20.00;42.90;;;;;;7671918;23;20008;-66
2021/04/16 04:53:59;;;;;;;1.40;0.40;;;20.00;43.00;;;;;;7671931;23;20340;-67
2021/04/16 04:57:00;;;;;;;0.50;0.40;;;20.00;43.10;;;;;;7671227;23;20016;-66
2021/04/16 05:00:37;;;;;;;1.20;0.50;;;20.00;43.00;;;;;;7670996;23;20037;-66
2021/04/16 05:03:38;;;;;;;0.28;0.22;;;20.00;43.00;;;;;;7670161;23;20333;-67
2021/04/16 05:06:38;;;;;;;0.47;0.35;;;20.00;43.10;;;;;;7670580;23;20103;-67
2021/04/16 05:09:39;;;;;;;0.50;0.40;;;20.00;43.10;;;;;;7669008;23;20012;-66
2021/04/16 05:12:40;;;;;;;2.03;0.32;;;20.00;43.10;;;;;;7670542;23;20005;-66
2021/04/16 05:15:47;;;;;;;0.82;0.32;;;20.00;43.20;;;;;;7670123;23;20357;-66
2021/04/16 05:18:49;;;;;;;1.08;0.50;;;20.00;43.20;;;;;;7661715;23;20080;-63
2021/04/16 05:21:52;;;;;;;1.83;0.50;;;20.00;43.10;;;;;;7672050;23;20011;-66
2021/04/16 05:24:52;;;;;;;0.60;0.40;;;20.00;43.30;;;;;;7671931;23;20427;-66
2021/04/16 05:27:53;;;;;;;0.60;0.38;;;20.10;43.30;;;;;;7673629;23;20008;-65
2021/04/16 05:30:54;;;;;;;3.00;0.40;;;20.00;43.20;;;;;;7674619;23;20055;-66
2021/04/16 05:33:55;;;;;;;1.30;0.40;;;20.00;43.20;;;;;;7673925;23;20001;-65
2021/04/16 05:36:55;;;;;;;1.05;0.40;;;20.00;43.30;;;;;;7674336;23;20099;-65
2021/04/16 05:39:56;;;;;;;1.02;0.38;;;20.00;43.20;;;;;;7674446;23;20074;-66
2021/04/16 05:42:57;;;;;;;0.43;0.30;;;20.10;43.40;;;;;;7674197;23;20451;-66
2021/04/16 05:45:57;;;;;;;0.73;0.40;;;20.10;43.40;;;;;;7674121;23;20012;-65
2021/04/16 05:48:58;;;;;;;0.95;0.40;;;20.10;43.50;;;;;;7674007;23;20005;-66
2021/04/16 05:51:59;;;;;;;1.63;0.45;;;20.00;43.30;;;;;;7674541;23;20008;-66
2021/04/16 05:54:59;;;;;;;0.75;0.50;;;20.10;43.40;;;;;;7675805;23;20037;-66
2021/04/16 05:58:00;;;;;;;0.70;0.52;;;20.10;43.40;;;;;;7674104;23;20032;-65
2021/04/16 06:01:00;;;;;;;0.68;0.40;;;20.00;43.30;;;;;;7674224;23;20009;-65
2021/04/16 06:04:01;;;;;;;0.40;0.40;;;20.10;43.50;;;;;;7675781;23;20020;-66
2021/04/16 06:07:02;;;;;;;1.73;0.40;;;20.10;43.40;;;;;;7675022;23;20076;-65
2021/04/16 06:10:05;;;;;;;1.85;0.40;;;20.10;43.50;;;;;;7676129;23;19997;-66
2021/04/16 06:13:06;;;;;;;0.55;0.50;;;20.10;43.60;;;;;;7675599;23;20008;-66
2021/04/16 06:16:08;;;;;;;6.57;0.77;;;20.10;43.60;;;;;;7675294;23;20005;-66
2021/04/16 06:19:08;;;;;;;6.38;0.50;;;20.10;43.60;;;;;;7674147;23;20351;-66
2021/04/16 06:22:10;;;;;;;3.40;0.75;;;20.10;43.60;;;;;;7675297;23;20016;-66
2021/04/16 06:25:12;;;;;;;1.80;0.45;;;20.10;43.60;;;;;;7673824;23;20164;-65
2021/04/16 06:28:16;;;;;;;7.25;0.60;;;20.10;43.60;;;;;;7675431;23;20027;-66
2021/04/16 06:31:18;;;;;;;7.80;0.93;;;20.10;43.60;;;;;;7674733;23;20013;-65
2021/04/16 06:34:19;;;;;;;4.18;0.60;;;20.10;43.60;;;;;;7675577;23;20011;-66
2021/04/16 06:37:20;;;;;;;10.93;0.85;;;20.10;43.60;;;;;;7676541;23;20001;-66
2021/04/16 06:40:20;;;;;;;1.33;0.60;;;20.10;43.60;;;;;;7676365;23;20434;-66
2021/04/16 06:43:30;;;;;;;3.15;0.65;;;20.10;43.60;;;;;;7675934;23;20005;-66
2021/04/16 06:46:37;;;;;;;1.95;0.50;;;20.10;43.60;;;;;;7675277;23;20555;-66
2021/04/16 06:49:40;;;;;;;5.57;0.70;;;20.10;43.60;;;;;;7675957;23;20110;-66
2021/04/16 06:53:12;;;;;;;4.22;0.80;;;20.10;43.60;;;;;;7675530;23;20091;-66
2021/04/16 06:56:30;;;;;;;1.27;0.50;;;20.10;43.70;;;;;;7674049;23;20466;-65
2021/04/16 06:59:32;;;;;;;4.05;0.60;;;20.10;43.70;;;;;;7671747;23;20009;-66
2021/04/16 07:02:39;;;;;;;5.40;0.60;;;20.10;43.80;;;;;;7675794;23;20032;-66
2021/04/16 07:05:43;;;;;;;4.00;0.50;;;20.10;43.80;;;;;;7673873;23;20009;-65
2021/04/16 07:08:59;;;;;;;3.92;0.70;;;20.10;43.80;;;;;;7674137;23;20102;-66
2021/04/16 07:12:16;;;;;;;;;;;20.00;43.70;;;;;;7675086;23;20479;-66
2021/04/16 07:15:25;;;;;;;6.47;1.00;;;20.00;42.10;;;;;;7674932;23;19907;-65
2021/04/16 07:18:33;;;;;;;6.15;1.10;;;20.00;42.10;;;;;;7673614;23;20096;-65
2021/04/16 07:21:33;;;;;;;4.05;0.75;;;20.00;42.10;;;;;;7672983;23;20016;-66
2021/04/16 07:24:35;;;;;;;4.03;1.10;;;20.00;42.30;;;;;;7673979;23;20008;-66
2021/04/16 07:27:46;;;;;;;2.08;0.70;;;20.00;42.60;;;;;;7674620;23;20001;-66
2021/04/16 07:30:50;;;;;;;3.50;0.80;;;20.00;42.30;;;;;;7674128;23;20009;-66
2021/04/16 07:33:51;;;;;;;6.30;1.30;;;20.00;42.60;;;;;;7671887;23;20008;-66
2021/04/16 07:36:52;;;;;;;6.10;1.08;;;20.00;42.60;;;;;;7674462;23;20009;-66
2021/04/16 07:40:05;;;;;;;1.20;0.45;;;20.00;42.50;;;;;;7674995;23;20052;-66
2021/04/16 07:43:06;;;;;;;1.83;0.70;;;20.00;42.70;;;;;;7674116;23;20013;-66
2021/04/16 07:46:26;;;;;;;2.08;0.80;;;20.00;42.80;;;;;;7673434;23;20009;-65
2021/04/16 07:49:33;;;;;;;2.22;0.95;;;20.00;42.60;;;;;;7673820;23;20009;-65
2021/04/16 07:52:41;;;;;;;3.45;1.00;;;20.00;42.80;;;;;;7674614;23;20462;-65
2021/04/16 07:55:42;;;;;;;1.88;0.80;;;20.00;42.90;;;;;;7673739;23;20563;-66
2021/04/16 07:59:10;;;;;;;2.25;1.00;;;20.00;43.10;;;;;;7673883;23;20016;-66
2021/04/16 08:02:24;;;;;;;1.65;0.80;;;20.00;43.30;;;;;;7674071;23;20016;-66
2021/04/16 08:05:25;;;;;;;2.55;0.82;;;20.00;42.80;;;;;;7674185;23;20080;-66
2021/04/16 08:08:33;;;;;;;2.50;0.85;;;20.00;42.90;;;;;;7674300;23;20007;-65
2021/04/16 08:11:35;;;;;;;3.50;0.63;;;20.00;42.80;;;;;;7673626;23;20013;-65
2021/04/16 08:14:39;;;;;;;1.70;0.52;;;20.00;42.80;;;;;;7673554;23;20043;-66
2021/04/16 08:17:40;;;;;;;1.73;0.80;;;20.00;42.80;;;;;;7673543;23;20096;-66
2021/04/16 08:20:54;;;;;;;1.27;0.60;;;20.00;43.00;;;;;;7673247;23;20043;-66
2021/04/16 08:24:07;;;;;;;1.40;0.50;;;20.10;43.00;;;;;;7674225;23;20036;-66
2021/04/16 08:27:41;;;;;;;3.72;0.60;;;20.10;42.90;;;;;;7672963;23;20063;-66
2021/04/16 08:31:04;;;;;;;5.28;0.57;;;20.00;42.80;;;;;;7673708;23;20499;-66
2021/04/16 08:34:14;;;;;;;1.63;0.80;;;20.10;43.10;;;;;;7672930;23;20020;-66
2021/04/16 08:37:27;;;;;;;1.05;0.60;;;20.10;43.20;;;;;;7673331;23;20051;-66
2021/04/16 08:40:38;;;;;;;1.73;0.70;;;20.00;43.00;;;;;;7673854;23;20017;-66
2021/04/16 08:43:43;;;;;;;0.75;0.55;;;20.10;43.10;;;;;;7673584;23;20009;-66
2021/04/16 08:46:47;;;;;;;1.13;0.60;;;20.10;43.10;;;;;;7673454;23;20013;-65
2021/04/16 08:49:52;;;;;;;2.08;0.52;;;20.10;43.20;;;;;;7673110;23;20017;-66
2021/04/16 08:52:59;;;;;;;1.15;0.70;;;20.10;43.20;;;;;;7673341;23;20027;-65
2021/04/16 08:56:26;;;;;;;1.95;0.70;;;20.10;43.20;;;;;;7673811;23;20028;-65
2021/04/16 08:59:34;;;;;;;0.73;0.50;;;20.10;43.30;;;;;;7673127;23;20343;-66
2021/04/16 09:02:44;;;;;;;0.65;0.45;;;20.10;43.40;;;;;;7673240;23;20020;-66
2021/04/16 09:06:00;;;;;;;2.10;0.63;;;20.10;43.20;;;;;;7672797;23;20076;-66
2021/04/16 09:09:05;;;;;;;1.08;0.70;;;20.10;43.20;;;;;;7673174;23;20128;-66
2021/04/16 09:12:06;;;;;;;1.63;0.50;;;20.10;43.20;;;;;;7673439;23;20013;-66
2021/04/16 09:15:18;;;;;;;1.15;0.60;;;20.10;43.20;;;;;;7672988;23;20016;-65
2021/04/16 09:18:28;;;;;;;1.77;0.50;;;20.10;43.10;;;;;;7672175;23;20079;-65
2021/04/16 09:21:31;;;;;;;1.73;0.55;;;20.10;43.20;;;;;;7671552;23;20009;-66
2021/04/16 09:24:53;;;;;;;1.00;0.50;;;20.10;43.30;;;;;;7673579;23;20121;-66
2021/04/16 09:27:53;;;;;;;1.77;0.70;;;20.10;43.30;;;;;;7673543;23;20436;-65
2021/04/16 09:31:01;;;;;;;0.90;0.50;;;20.10;43.20;;;;;;7672706;23;20008;-66
2021/04/16 09:34:16;;;;;;;1.65;0.70;;;20.10;43.20;;;;;;7672988;23;20028;-66
2021/04/16 09:37:31;;;;;;;1.45;0.70;;;20.10;43.30;;;;;;7673079;23;20092;-65
2021/04/16 09:40:33;;;;;;;1.55;0.60;;;20.10;43.30;;;;;;7672617;23;20079;-66
2021/04/16 09:43:34;;;;;;;2.92;0.50;;;20.10;43.40;;;;;;7672786;23;20431;-65
2021/04/16 09:46:35;;;;;;;2.58;0.75;;;20.10;43.60;;;;;;7672595;23;20403;-65
2021/04/16 09:49:54;;;;;;;2.45;0.63;;;20.10;43.70;;;;;;7672378;23;20023;-65
2021/04/16 09:53:15;;;;;;;1.35;0.70;;;20.10;43.70;;;;;;7673485;23;20039;-65
2021/04/16 09:56:18;;;;;;;1.27;0.77;;;20.10;43.40;;;;;;7673887;23;20013;-66
2021/04/16 09:59:40;;;;;;;2.35;0.82;;;20.10;43.50;;;;;;7673966;23;20023;-65
2021/04/16 10:02:41;;;;;;;1.70;0.80;;;20.10;43.50;;;;;;7674163;23;20037;-65
2021/04/16 10:05:41;;;;;;;1.98;0.85;;;20.10;43.40;;;;;;7673874;23;20096;-65
2021/04/16 10:08:44;;;;;;;3.70;0.80;;;20.10;43.40;;;;;;7673389;23;20440;-65
2021/04/16 10:12:00;;;;;;;2.00;0.85;;;20.10;43.30;;;;;;7674569;23;20515;-66
2021/04/16 10:15:22;;;;;;;1.80;1.00;;;20.10;43.30;;;;;;7675517;23;20009;-65
2021/04/16 10:18:32;;;;;;;4.13;0.73;;;20.10;43.30;;;;;;7675602;23;20497;-65
2021/04/16 10:21:33;;;;;;;0.88;0.63;;;20.10;43.40;;;;;;7674729;23;20356;-65
2021/04/16 11:06:52;;;;;;;2.78;0.90;;;20.10;43.40;;;;;;7675009;23;20013;-65
2021/04/16 11:32:06;;;;;;;1.08;0.70;;;20.10;43.70;;;;;;7675853;23;20017;-65
2021/04/16 12:40:49;;;;;;;1.40;0.68;;;20.10;43.70;;;;;;7673703;23;20025;-66
2021/04/16 12:43:50;;;;;;;0.93;0.73;;;20.10;43.70;;;;;;7674289;23;20003;-65
2021/04/16 12:46:51;;;;;;;0.70;0.57;;;20.10;43.70;;;;;;7673960;23;20386;-65
2021/04/16 12:49:53;;;;;;;0.57;0.47;;;20.10;43.70;;;;;;7674352;23;20063;-66
2021/04/16 12:52:54;;;;;;;1.25;0.75;;;20.10;43.70;;;;;;7671046;23;20076;-64
2021/04/16 12:55:55;;;;;;;0.95;0.65;;;20.10;43.70;;;;;;7660405;23;20012;-65
2021/04/16 12:59:05;;;;;;;2.95;0.82;;;20.10;43.60;;;;;;7671995;23;20021;-65
2021/04/16 13:02:09;;;;;;;1.45;0.60;;;20.10;40.70;;;;;;7672695;23;20009;-65
2021/04/16 13:05:16;;;;;;;8.48;1.00;;;20.20;43.10;;;;;;7672680;23;20005;-65
2021/04/16 13:08:17;;;;;;;1.52;0.70;;;20.10;42.90;;;;;;7671432;23;20037;-65
2021/04/16 13:11:18;;;;;;;5.55;1.15;;;20.10;42.90;;;;;;7671861;23;20385;-65
2021/04/16 13:14:19;;;;;;;3.33;0.80;;;20.10;42.80;;;;;;7672591;23;20009;-66
2021/04/16 13:17:23;;;;;;;5.03;0.95;;;20.20;43.10;;;;;;7671918;23;20052;-65
2021/04/16 13:20:26;;;;;;;4.80;0.80;;;20.10;42.90;;;;;;7671703;23;20093;-65
2021/04/16 13:23:27;;;;;;;2.55;1.05;;;20.20;43.30;;;;;;7672356;23;20017;-65
2021/04/16 13:26:28;;;;;;;3.53;0.90;;;20.10;43.20;;;;;;7672523;23;20013;-64
2021/04/16 13:29:32;;;;;;;1.95;0.77;;;20.10;43.30;;;;;;7672487;23;20391;-65
2021/04/16 13:32:41;;;;;;;4.50;0.98;;;20.20;43.10;;;;;;7670971;23;20013;-66
2021/04/16 13:35:54;;;;;;;6.70;0.80;;;20.20;43.30;;;;;;7672398;23;20012;-65
2021/04/16 13:38:55;;;;;;;5.90;1.00;;;20.20;43.70;;;;;;7672111;23;20017;-65
2021/04/16 13:41:55;;;;;;;5.60;0.75;;;20.20;43.50;;;;;;7671520;23;20016;-65
2021/04/16 13:44:56;;;;;;;1.45;0.75;;;20.20;43.60;;;;;;7670806;23;20015;-65
2021/04/16 13:47:57;;;;;;;7.82;0.98;;;20.20;43.60;;;;;;7673408;23;20286;-65
2021/04/16 13:50:57;;;;;;;7.68;1.20;;;20.20;43.70;;;;;;7673831;23;20352;-66
2021/04/16 13:53:58;;;;;;;2.22;0.90;;;20.20;43.70;;;;;;7673563;23;20017;-65
2021/04/16 13:56:59;;;;;;;8.77;1.15;;;20.20;41.40;;;;;;7673283;23;20024;-65
2021/04/16 13:59:59;;;;;;;2.85;0.90;;;20.20;38.60;;;;;;7674019;23;20017;-64
2021/04/16 14:03:29;;;;;;;4.25;1.00;;;20.20;39.20;;;;;;7674730;23;20448;-65
2021/04/16 14:06:35;;;;;;;3.17;1.52;;;20.10;40.20;;;;;;7672581;23;20023;-65
2021/04/16 14:09:37;;;;;;;34.72;1.55;;;20.10;37.30;;;;;;7673469;23;20088;-65
2021/04/16 14:12:38;;;;;;;4.65;1.20;;;20.10;39.70;;;;;;7674401;23;20009;-65
2021/04/16 14:15:38;;;;;;;6.32;1.20;;;20.10;40.20;;;;;;7674659;23;20072;-65
2021/04/16 14:18:43;;;;;;;4.47;1.33;;;20.10;38.50;;;;;;7673144;23;20017;-65
2021/04/16 14:21:45;;;;;;;4.97;1.37;;;20.10;37.80;;;;;;7673603;23;20013;-65
2021/04/16 14:24:45;;;;;;;10.57;1.50;;;20.10;37.40;;;;;;7673532;23;20020;-66
2021/04/16 14:27:46;;;;;;;4.40;1.25;;;20.10;38.20;;;;;;7674702;23;20546;-65
2021/04/16 14:30:47;;;;;;;4.07;1.15;;;20.10;38.30;;;;;;7673528;23;20016;-65
2021/04/16 14:33:48;;;;;;;6.10;1.55;;;20.10;36.90;;;;;;7672956;23;20012;-65
2021/04/16 14:36:48;;;;;;;6.07;1.27;;;20.10;36.60;;;;;;7673580;23;20032;-65
2021/04/16 14:39:49;;;;;;;5.43;1.27;;;20.10;35.20;;;;;;7673955;23;20344;-65
2021/04/16 14:42:50;;;;;;;11.85;1.05;;;20.10;35.90;;;;;;7673786;23;20009;-65
2021/04/16 14:45:53;;;;;;;12.10;1.40;;;20.10;37.30;;;;;;7674010;23;20024;-65
2021/04/16 14:48:54;;;;;;;4.95;1.20;;;20.10;37.70;;;;;;7672749;23;20036;-65
2021/04/16 14:51:56;;;;;;;10.10;1.40;;;20.10;38.50;;;;;;7673066;23;20009;-63
2021/04/16 14:54:58;;;;;;;6.68;0.98;;;20.20;39.00;;;;;;7673897;23;20066;-65
2021/04/16 14:57:59;;;;;;;4.07;1.17;;;20.10;39.20;;;;;;7673421;23;20015;-65
2021/04/16 15:01:00;;;;;;;1.95;1.00;;;20.20;39.70;;;;;;7673034;23;20017;-65
2021/04/16 15:04:01;;;;;;;5.60;1.50;;;20.10;39.70;;;;;;7673660;23;20013;-65
2021/04/16 15:07:05;;;;;;;3.08;1.10;;;20.10;40.00;;;;;;7672563;23;20071;-65
2021/04/16 15:10:09;;;;;;;3.53;1.17;;;20.10;40.20;;;;;;7673694;23;20011;-65
2021/04/16 15:13:19;;;;;;;2.58;1.05;;;20.10;40.40;;;;;;7673146;23;20061;-65
2021/04/16 15:16:21;;;;;;;3.22;1.23;;;20.10;40.50;;;;;;7673348;23;20009;-65
2021/04/16 15:19:38;;;;;;;4.35;0.93;;;20.10;40.60;;;;;;7673186;23;20020;-63
2021/04/16 15:22:38;;;;;;;6.05;1.23;;;20.10;40.70;;;;;;7673591;23;20444;-63
2021/04/16 15:25:52;;;;;;;5.07;1.10;;;20.10;40.90;;;;;;7671758;23;20017;-63
2021/04/16 15:29:09;;;;;;;6.05;1.42;;;20.10;40.80;;;;;;7673528;23;20051;-63
2021/04/16 15:32:19;;;;;;;3.97;0.90;;;20.10;41.00;;;;;;7673749;23;20017;-63
2021/04/16 15:46:05;;;;;;;5.88;1.00;;;20.10;41.40;;;;;;7672854;23;20016;-65
2021/04/16 15:49:06;;;;;;;1.80;0.90;;;20.10;41.50;;;;;;7670388;23;20467;-65
2021/04/16 15:52:07;;;;;;;4.07;0.80;;;20.10;41.70;;;;;;7672846;23;20067;-65
2021/04/16 15:55:09;;;;;;;2.72;1.02;;;20.10;41.70;;;;;;7671326;23;20005;-63
2021/04/16 15:58:13;;;;;;;6.05;1.00;;;20.10;41.70;;;;;;7672649;23;20024;-63
2021/04/16 16:01:19;;;;;;;2.15;0.90;;;20.10;41.90;;;;;;7671636;23;20027;-63
2021/04/16 16:04:20;;;;;;;4.82;1.02;;;20.10;41.90;;;;;;7673165;23;20016;-63
2021/04/16 16:07:20;;;;;;;2.42;0.80;;;20.10;42.00;;;;;;7673461;23;20008;-63
2021/04/16 16:10:21;;;;;;;2.88;0.98;;;20.10;42.00;;;;;;7672901;23;20012;-63
2021/04/16 16:13:40;;;;;;;6.68;0.90;;;20.20;42.20;;;;;;7670994;23;20017;-63
2021/04/16 16:16:43;;;;;;;2.42;0.82;;;20.20;42.20;;;;;;7670328;23;20044;-62
2021/04/16 16:19:45;;;;;;;6.05;1.00;;;20.20;42.30;;;;;;7671147;23;20024;-63
2021/04/16 16:22:46;;;;;;;6.68;1.10;;;20.20;42.30;;;;;;7672001;23;20031;-63
2021/04/16 16:25:46;;;;;;;1.92;0.77;;;20.20;42.40;;;;;;7669945;23;20017;-63
2021/04/16 16:28:50;;;;;;;3.67;0.80;;;20.20;42.40;;;;;;7670521;23;20012;-63
2021/04/16 16:31:53;;;;;;;4.38;1.30;;;20.20;42.40;;;;;;7670675;23;20024;-63
2021/04/16 16:34:54;;;;;;;1.40;0.60;;;20.10;42.40;;;;;;7671030;23;20017;-63
2021/04/16 16:37:54;;;;;;;2.75;0.85;;;20.20;42.50;;;;;;7670767;23;20095;-63
2021/04/16 16:40:55;;;;;;;3.22;1.13;;;20.10;42.50;;;;;;7671167;23;20459;-63
2021/04/16 16:43:56;;;;;;;3.63;1.13;;;20.20;42.60;;;;;;7671292;23;20397;-63
2021/04/16 16:46:57;;;;;;;1.67;0.90;;;20.20;42.60;;;;;;7670836;23;20681;-63
2021/04/16 16:49:58;;;;;;;5.85;0.90;;;20.20;42.70;;;;;;7669915;23;20444;-63
2021/04/16 16:52:58;;;;;;;3.70;0.88;;;20.20;42.70;;;;;;7671129;23;20016;-63
2021/04/16 16:55:59;;;;;;;6.22;1.17;;;20.20;42.80;;;;;;7670897;23;20015;-63
2021/04/16 16:59:03;;;;;;;4.28;0.90;;;20.20;42.80;;;;;;7670947;23;20092;-63
2021/04/16 17:02:08;;;;;;;1.85;0.95;;;20.20;42.80;;;;;;7666884;23;20389;-62
2021/04/16 17:05:10;;;;;;;5.57;1.05;;;20.20;42.90;;;;;;7670153;23;20037;-65
2021/04/16 17:08:12;;;;;;;2.47;0.80;;;20.20;42.90;;;;;;7671048;23;20005;-65
2021/04/16 17:11:15;;;;;;;1.23;0.80;;;20.20;42.90;;;;;;7670072;23;20009;-65
2021/04/16 17:14:29;;;;;;;1.58;0.85;;;20.20;42.90;;;;;;7670342;23;20032;-65
2021/04/16 17:17:30;;;;;;;4.60;0.90;;;20.20;42.90;;;;;;7670018;23;20028;-65
2021/04/16 17:20:31;;;;;;;3.03;0.70;;;20.20;43.00;;;;;;7670356;23;20016;-65
2021/04/16 17:23:32;;;;;;;3.55;0.70;;;20.20;43.00;;;;;;7670848;23;20091;-64
2021/04/16 17:26:36;;;;;;;2.05;0.90;;;20.20;43.00;;;;;;7669293;23;20005;-65
2021/04/16 17:29:46;;;;;;;1.52;0.70;;;20.20;43.00;;;;;;7671539;23;20005;-65
2021/04/16 17:32:46;;;;;;;4.30;1.00;;;20.20;43.10;;;;;;7670260;23;20405;-65
2021/04/16 17:35:47;;;;;;;2.33;0.93;;;20.20;43.10;;;;;;7670739;23;20021;-65
2021/04/16 17:38:49;;;;;;;2.22;0.98;;;20.20;43.10;;;;;;7670176;23;20012;-63
2021/04/16 17:41:54;;;;;;;1.60;1.00;;;20.20;43.10;;;;;;7670446;23;20013;-63
2021/04/16 17:44:59;;;;;;;0.90;0.75;;;20.20;43.10;;;;;;7670036;23;20344;-61
2021/04/16 17:48:01;;;;;;;2.97;0.73;;;20.20;43.20;;;;;;7670353;23;20005;-63
2021/04/16 17:51:09;;;;;;;2.55;0.77;;;20.20;43.20;;;;;;7670209;23;20654;-63
2021/04/16 17:54:11;;;;;;;5.90;1.00;;;20.20;43.30;;;;;;7669562;23;20009;-65
2021/04/16 17:57:11;;;;;;;2.17;1.08;;;20.20;43.20;;;;;;7669885;23;20017;-65
2021/04/16 18:00:14;;;;;;;1.27;0.80;;;20.20;43.30;;;;;;7669812;23;20024;-65
2021/04/16 18:03:15;;;;;;;1.67;0.80;;;20.20;43.30;;;;;;7670194;23;20380;-65
2021/04/16 18:06:21;;;;;;;2.00;0.73;;;20.20;43.40;;;;;;7668701;23;20496;-65
2021/04/16 18:09:23;;;;;;;2.53;0.95;;;20.20;43.40;;;;;;7669631;23;20017;-65
2021/04/16 18:12:24;;;;;;;6.57;1.00;;;20.20;43.40;;;;;;7670068;23;20020;-65
2021/04/16 18:15:26;;;;;;;5.13;1.00;;;20.20;43.40;;;;;;7664728;23;20116;-64
2021/04/16 18:18:27;;;;;;;2.25;0.73;;;20.20;43.50;;;;;;7663664;23;20024;-65
2021/04/16 18:21:30;;;;;;;3.38;0.75;;;20.20;43.40;;;;;;7664621;23;20013;-65